5NK9 weather

Treichler Farm Airport
Wales, New York, United States

Public forecast

Using degrees Fahrenheit for public forecast. Weather courtesy of forecast.io.

METAR (pilot weather report)

Closest report is Buffalo Niagara International Airport, 14.9 nm (27.7 km) NW. Retrieved 2019/06/25 10:54 UTC (20 minutes ago):

KBUF 251054Z 24015G23KT 10SM BKN010 OVC014 20/18 A2975 RMK AO2 CIG 006V012 SLP070 T02000178

TAF (pilot weather forecast)

Closest forecast is Buffalo Niagara International Airport, 14.9 nm (27.7 km) NW. Retrieved 2019/06/25 06:30 UTC (5 hours ago):

TAF KBUF 250527Z 2506/2606 21010KT 6SM -RA SCT025 BKN050 FM250730 22012KT P6SM VCSH SCT007 BKN015 FM250900 24012KT 5SM BR BKN007 FM251100 24012KT P6SM BKN025 FM251400 24016G26KT P6SM BKN090 FM251800 24020G30KT P6SM SCT050 SCT100 FM252300 23012KT P6SM FEW250